This is the latest recevied weather packets stored in our database for station/object DO7ZT-10. If no packets are shown the sender has not sent any weather packets the latest 10 day(s).
| Time | Temp. | Humidity | Pressure | Rain* | Wind** | Luminosity | Snow |
|---|---|---|---|---|---|---|---|
| 1777239227 | 4.44° C | 60% | 1024.4 hPa | - | - | - | - |
| 1777238327 | 5° C | 60% | 1024.4 hPa | - | - | - | - |
| 1777237427 | 4.44° C | 63% | 1024.2 hPa | - | - | - | - |
| 1777236527 | 5° C | 62% | 1024.3 hPa | - | - | - | - |
| 1777235627 | 5° C | 63% | 1024.3 hPa | - | - | - | - |
| 1777234727 | 5° C | 66% | 1024.2 hPa | - | - | - | - |
| 1777233827 | 5° C | 64% | 1024.2 hPa | - | - | - | - |
| 1777232927 | 5° C | 64% | 1024.2 hPa | - | - | - | - |
| 1777232027 | 5.56° C | 63% | 1024.3 hPa | - | - | - | - |
| 1777231127 | 6.11° C | 62% | 1024.2 hPa | - | - | - | - |
| 1777230227 | 6.11° C | 61% | 1024.1 hPa | - | - | - | - |
| 1777229327 | 7.22° C | 56% | 1024 hPa | - | - | - | - |
| 1777228427 | 7.78° C | 52% | 1023.9 hPa | - | - | - | - |
| 1777227527 | 9.44° C | 50% | 1023.8 hPa | - | - | - | - |
| 1777226626 | 10.56° C | 44% | 1023.7 hPa | - | - | - | - |
| 1777225726 | 11.67° C | 39% | 1023.4 hPa | - | - | - | - |
| 1777224826 | 12.22° C | 37% | 1023.5 hPa | - | - | - | - |
| 1777223926 | 12.78° C | 34% | 1023.4 hPa | - | - | - | - |
| 1777223026 | 12.78° C | 31% | 1023.4 hPa | - | - | - | - |
| 1777222126 | 13.33° C | 31% | 1023.3 hPa | - | - | - | - |
| 1777221226 | 13.33° C | 30% | 1023.4 hPa | - | - | - | - |
| 1777220325 | 13.89° C | 28% | 1023.4 hPa | - | - | - | - |
| 1777219425 | 13.89° C | 29% | 1023.5 hPa | - | - | - | - |
| 1777218525 | 15° C | 27% | 1023.6 hPa | - | - | - | - |
| 1777217625 | 15° C | 31% | 1023.6 hPa | - | - | - | - |
* Rain since midnight (hover to see other rain measurements)
** Current wind speed in m/s (hover to see current wind gust speed)